sensor_id;sensor_type;location;lat;lon;timestamp;pressure;altitude;pressure_sealevel;temperature;humidity
64683;BME280;51107;47.652;19.016;2022-09-27T00:01:14;98737.22;;;11.95;100.00
64683;BME280;51107;47.652;19.016;2022-09-27T00:03:43;98726.66;;;12.03;100.00
64683;BME280;51107;47.652;19.016;2022-09-27T00:06:21;98727.47;;;12.03;100.00
64683;BME280;51107;47.652;19.016;2022-09-27T00:08:50;98724.06;;;12.03;100.00
64683;BME280;51107;47.652;19.016;2022-09-27T00:11:29;98722.44;;;12.02;100.00
64683;BME280;51107;47.652;19.016;2022-09-27T00:13:59;98722.44;;;12.02;100.00
64683;BME280;51107;47.652;19.016;2022-09-27T00:16:30;98717.03;;;12.03;100.00
64683;BME280;51107;47.652;19.016;2022-09-27T00:19:02;98722.25;;;12.03;100.00
64683;BME280;51107;47.652;19.016;2022-09-27T00:21:31;98717.03;;;11.88;100.00
64683;BME280;51107;47.652;19.016;2022-09-27T00:23:59;98709.22;;;11.88;100.00
64683;BME280;51107;47.652;19.016;2022-09-27T00:26:28;98716.50;;;11.93;100.00
64683;BME280;51107;47.652;19.016;2022-09-27T00:28:57;98714.22;;;11.90;100.00
64683;BME280;51107;47.652;19.016;2022-09-27T00:31:27;98707.34;;;11.82;100.00
64683;BME280;51107;47.652;19.016;2022-09-27T00:34:00;98700.50;;;11.81;100.00
64683;BME280;51107;47.652;19.016;2022-09-27T00:36:29;98703.75;;;11.83;100.00
64683;BME280;51107;47.652;19.016;2022-09-27T00:39:00;98696.97;;;11.89;100.00
64683;BME280;51107;47.652;19.016;2022-09-27T00:41:31;98699.41;;;11.90;100.00
64683;BME280;51107;47.652;19.016;2022-09-27T00:44:46;98688.50;;;11.87;100.00
64683;BME280;51107;47.652;19.016;2022-09-27T00:47:08;98691.38;;;11.92;100.00
64683;BME280;51107;47.652;19.016;2022-09-27T00:55:26;98675.28;;;11.88;100.00
64683;BME280;51107;47.652;19.016;2022-09-27T00:57:56;98671.31;;;11.71;100.00
64683;BME280;51107;47.652;19.016;2022-09-27T01:00:25;98686.06;;;11.64;100.00
64683;BME280;51107;47.652;19.016;2022-09-27T01:02:54;98677.00;;;11.60;100.00
64683;BME280;51107;47.652;19.016;2022-09-27T01:05:26;98679.25;;;11.63;100.00
64683;BME280;51107;47.652;19.016;2022-09-27T01:07:55;98673.78;;;11.58;100.00
64683;BME280;51107;47.652;19.016;2022-09-27T01:10:30;98675.13;;;11.53;100.00
64683;BME280;51107;47.652;19.016;2022-09-27T01:13:22;98673.97;;;11.56;100.00
64683;BME280;51107;47.652;19.016;2022-09-27T01:16:29;98669.34;;;11.58;100.00
64683;BME280;51107;47.652;19.016;2022-09-27T01:19:19;98664.31;;;11.56;100.00
64683;BME280;51107;47.652;19.016;2022-09-27T01:22:11;98666.13;;;11.56;100.00
64683;BME280;51107;47.652;19.016;2022-09-27T01:27:53;98658.50;;;11.54;100.00
64683;BME280;51107;47.652;19.016;2022-09-27T01:36:10;98655.50;;;11.58;100.00
64683;BME280;51107;47.652;19.016;2022-09-27T01:38:50;98652.44;;;11.54;100.00
64683;BME280;51107;47.652;19.016;2022-09-27T01:44:24;98652.16;;;11.64;100.00
64683;BME280;51107;47.652;19.016;2022-09-27T01:47:23;98639.56;;;11.67;100.00
64683;BME280;51107;47.652;19.016;2022-09-27T01:52:30;98635.31;;;11.66;100.00
64683;BME280;51107;47.652;19.016;2022-09-27T01:55:04;98627.09;;;11.63;100.00
64683;BME280;51107;47.652;19.016;2022-09-27T01:57:38;98627.28;;;11.61;100.00
64683;BME280;51107;47.652;19.016;2022-09-27T02:00:10;98622.59;;;11.56;100.00
64683;BME280;51107;47.652;19.016;2022-09-27T02:02:49;98613.41;;;11.61;100.00
64683;BME280;51107;47.652;19.016;2022-09-27T02:05:28;98604.34;;;11.56;100.00
64683;BME280;51107;47.652;19.016;2022-09-27T02:08:02;98609.47;;;11.50;100.00
64683;BME280;51107;47.652;19.016;2022-09-27T02:10:40;98605.09;;;11.50;100.00
64683;BME280;51107;47.652;19.016;2022-09-27T02:13:20;98618.47;;;11.47;100.00
64683;BME280;51107;47.652;19.016;2022-09-27T02:16:05;98610.22;;;11.44;100.00
64683;BME280;51107;47.652;19.016;2022-09-27T02:25:53;98609.00;;;11.25;100.00
64683;BME280;51107;47.652;19.016;2022-09-27T02:28:01;98612.97;;;11.20;100.00
64683;BME280;51107;47.652;19.016;2022-09-27T02:30:34;98602.56;;;11.20;100.00
64683;BME280;51107;47.652;19.016;2022-09-27T02:33:03;98617.94;;;11.15;100.00
64683;BME280;51107;47.652;19.016;2022-09-27T02:35:33;98613.09;;;11.12;100.00
64683;BME280;51107;47.652;19.016;2022-09-27T02:38:03;98605.00;;;11.07;100.00
64683;BME280;51107;47.652;19.016;2022-09-27T02:40:35;98602.16;;;11.02;100.00
64683;BME280;51107;47.652;19.016;2022-09-27T02:43:12;98599.69;;;11.00;100.00
64683;BME280;51107;47.652;19.016;2022-09-27T02:46:08;98604.50;;;10.97;100.00
64683;BME280;51107;47.652;19.016;2022-09-27T02:51:19;98599.75;;;10.70;100.00
64683;BME280;51107;47.652;19.016;2022-09-27T02:54:06;98603.41;;;10.61;100.00
64683;BME280;51107;47.652;19.016;2022-09-27T03:00:27;98593.88;;;10.53;100.00
64683;BME280;51107;47.652;19.016;2022-09-27T03:02:58;98596.34;;;10.55;100.00
64683;BME280;51107;47.652;19.016;2022-09-27T03:05:38;98591.75;;;10.57;100.00
64683;BME280;51107;47.652;19.016;2022-09-27T03:08:09;98591.28;;;10.53;100.00
64683;BME280;51107;47.652;19.016;2022-09-27T03:10:40;98579.38;;;10.44;100.00
64683;BME280;51107;47.652;19.016;2022-09-27T03:13:09;98581.78;;;10.46;100.00
64683;BME280;51107;47.652;19.016;2022-09-27T03:15:37;98573.69;;;10.41;100.00
64683;BME280;51107;47.652;19.016;2022-09-27T03:18:15;98578.72;;;10.42;100.00
64683;BME280;51107;47.652;19.016;2022-09-27T03:20:46;98574.50;;;10.41;100.00
64683;BME280;51107;47.652;19.016;2022-09-27T03:23:15;98573.50;;;10.42;100.00
64683;BME280;51107;47.652;19.016;2022-09-27T03:25:44;98567.94;;;10.45;100.00
64683;BME280;51107;47.652;19.016;2022-09-27T03:28:13;98570.63;;;10.37;100.00
64683;BME280;51107;47.652;19.016;2022-09-27T03:30:44;98561.22;;;10.36;100.00
64683;BME280;51107;47.652;19.016;2022-09-27T03:33:14;98567.47;;;10.27;100.00
64683;BME280;51107;47.652;19.016;2022-09-27T03:35:43;98570.84;;;9.97;100.00
64683;BME280;51107;47.652;19.016;2022-09-27T03:38:13;98569.22;;;9.96;100.00
64683;BME280;51107;47.652;19.016;2022-09-27T03:40:41;98576.28;;;10.02;100.00
64683;BME280;51107;47.652;19.016;2022-09-27T03:43:10;98574.53;;;10.03;100.00
64683;BME280;51107;47.652;19.016;2022-09-27T03:45:38;98562.84;;;9.99;100.00
64683;BME280;51107;47.652;19.016;2022-09-27T03:48:07;98562.91;;;9.91;100.00
64683;BME280;51107;47.652;19.016;2022-09-27T03:50:35;98561.28;;;9.90;100.00
64683;BME280;51107;47.652;19.016;2022-09-27T03:53:04;98561.41;;;9.96;100.00
64683;BME280;51107;47.652;19.016;2022-09-27T03:55:32;98555.91;;;9.91;100.00
64683;BME280;51107;47.652;19.016;2022-09-27T03:58:02;98554.97;;;9.69;100.00
64683;BME280;51107;47.652;19.016;2022-09-27T04:00:30;98569.28;;;9.65;100.00
64683;BME280;51107;47.652;19.016;2022-09-27T04:03:03;98562.66;;;9.62;100.00
64683;BME280;51107;47.652;19.016;2022-09-27T04:05:34;98558.22;;;9.71;100.00
64683;BME280;51107;47.652;19.016;2022-09-27T04:08:03;98550.97;;;9.81;100.00
64683;BME280;51107;47.652;19.016;2022-09-27T04:10:33;98553.31;;;9.91;100.00
64683;BME280;51107;47.652;19.016;2022-09-27T04:13:01;98563.19;;;9.96;100.00
64683;BME280;51107;47.652;19.016;2022-09-27T04:15:30;98570.44;;;9.85;100.00
64683;BME280;51107;47.652;19.016;2022-09-27T04:18:00;98568.87;;;9.76;100.00
64683;BME280;51107;47.652;19.016;2022-09-27T04:20:31;98559.56;;;9.82;100.00
64683;BME280;51107;47.652;19.016;2022-09-27T04:23:00;98562.56;;;9.94;100.00
64683;BME280;51107;47.652;19.016;2022-09-27T04:25:28;98560.87;;;10.01;100.00
64683;BME280;51107;47.652;19.016;2022-09-27T04:27:56;98561.25;;;10.13;100.00
64683;BME280;51107;47.652;19.016;2022-09-27T04:30:26;98550.59;;;10.23;100.00
64683;BME280;51107;47.652;19.016;2022-09-27T04:32:57;98556.69;;;10.30;100.00
64683;BME280;51107;47.652;19.016;2022-09-27T04:35:27;98555.66;;;10.39;100.00
64683;BME280;51107;47.652;19.016;2022-09-27T04:38:14;98552.16;;;10.47;100.00
64683;BME280;51107;47.652;19.016;2022-09-27T04:40:43;98549.28;;;10.57;100.00
64683;BME280;51107;47.652;19.016;2022-09-27T04:43:12;98543.16;;;10.49;100.00
64683;BME280;51107;47.652;19.016;2022-09-27T04:45:42;98547.75;;;10.62;100.00
64683;BME280;51107;47.652;19.016;2022-09-27T04:48:11;98543.63;;;10.68;100.00
64683;BME280;51107;47.652;19.016;2022-09-27T04:50:39;98546.75;;;10.63;100.00
64683;BME280;51107;47.652;19.016;2022-09-27T04:53:14;98541.91;;;10.60;100.00
64683;BME280;51107;47.652;19.016;2022-09-27T04:55:45;98549.81;;;10.67;100.00
64683;BME280;51107;47.652;19.016;2022-09-27T04:58:14;98545.25;;;10.69;100.00
64683;BME280;51107;47.652;19.016;2022-09-27T05:00:43;98541.38;;;10.65;100.00
64683;BME280;51107;47.652;19.016;2022-09-27T05:03:14;98549.09;;;10.58;100.00
64683;BME280;51107;47.652;19.016;2022-09-27T05:05:49;98538.22;;;10.54;100.00
64683;BME280;51107;47.652;19.016;2022-09-27T05:08:17;98538.59;;;10.51;100.00
64683;BME280;51107;47.652;19.016;2022-09-27T05:10:46;98530.16;;;10.49;100.00
64683;BME280;51107;47.652;19.016;2022-09-27T05:13:15;98534.72;;;10.47;100.00
64683;BME280;51107;47.652;19.016;2022-09-27T05:15:45;98522.59;;;10.54;100.00
64683;BME280;51107;47.652;19.016;2022-09-27T05:18:14;98518.72;;;10.65;100.00
64683;BME280;51107;47.652;19.016;2022-09-27T05:20:55;98512.44;;;10.75;100.00
64683;BME280;51107;47.652;19.016;2022-09-27T05:23:26;98508.91;;;10.82;100.00
64683;BME280;51107;47.652;19.016;2022-09-27T05:25:55;98514.69;;;10.78;100.00
64683;BME280;51107;47.652;19.016;2022-09-27T05:28:24;98523.28;;;10.78;100.00
64683;BME280;51107;47.652;19.016;2022-09-27T05:30:52;98532.72;;;10.79;100.00
64683;BME280;51107;47.652;19.016;2022-09-27T05:33:21;98530.75;;;10.81;100.00
64683;BME280;51107;47.652;19.016;2022-09-27T05:35:54;98516.81;;;10.74;100.00
64683;BME280;51107;47.652;19.016;2022-09-27T05:38:23;98524.03;;;10.72;100.00
64683;BME280;51107;47.652;19.016;2022-09-27T05:40:53;98514.13;;;10.82;100.00
64683;BME280;51107;47.652;19.016;2022-09-27T05:43:21;98511.06;;;10.94;100.00
64683;BME280;51107;47.652;19.016;2022-09-27T05:45:51;98501.69;;;10.99;100.00
64683;BME280;51107;47.652;19.016;2022-09-27T05:48:20;98509.41;;;11.08;100.00
64683;BME280;51107;47.652;19.016;2022-09-27T05:50:49;98504.25;;;11.14;100.00
64683;BME280;51107;47.652;19.016;2022-09-27T05:53:18;98495.12;;;11.25;100.00
64683;BME280;51107;47.652;19.016;2022-09-27T05:55:46;98494.56;;;11.30;100.00
64683;BME280;51107;47.652;19.016;2022-09-27T05:58:17;98494.25;;;11.39;100.00
64683;BME280;51107;47.652;19.016;2022-09-27T06:00:45;98486.69;;;11.45;100.00
64683;BME280;51107;47.652;19.016;2022-09-27T06:03:16;98483.13;;;11.52;100.00
64683;BME280;51107;47.652;19.016;2022-09-27T06:05:48;98478.75;;;11.60;100.00
64683;BME280;51107;47.652;19.016;2022-09-27T06:08:20;98485.22;;;11.64;100.00
64683;BME280;51107;47.652;19.016;2022-09-27T06:10:49;98492.69;;;11.67;100.00
64683;BME280;51107;47.652;19.016;2022-09-27T06:13:19;98494.09;;;11.69;100.00
64683;BME280;51107;47.652;19.016;2022-09-27T06:15:47;98500.06;;;11.63;100.00
64683;BME280;51107;47.652;19.016;2022-09-27T06:18:18;98505.53;;;11.68;100.00
64683;BME280;51107;47.652;19.016;2022-09-27T06:20:46;98514.34;;;11.67;100.00
64683;BME280;51107;47.652;19.016;2022-09-27T06:23:18;98517.75;;;11.68;100.00
64683;BME280;51107;47.652;19.016;2022-09-27T06:25:49;98511.00;;;11.73;100.00
64683;BME280;51107;47.652;19.016;2022-09-27T06:28:19;98506.72;;;11.66;100.00
64683;BME280;51107;47.652;19.016;2022-09-27T06:30:49;98497.06;;;11.66;100.00
64683;BME280;51107;47.652;19.016;2022-09-27T06:33:19;98500.84;;;11.64;100.00
64683;BME280;51107;47.652;19.016;2022-09-27T06:35:48;98503.72;;;11.69;100.00
64683;BME280;51107;47.652;19.016;2022-09-27T06:38:17;98511.25;;;11.57;100.00
64683;BME280;51107;47.652;19.016;2022-09-27T06:40:47;98507.78;;;11.50;100.00
64683;BME280;51107;47.652;19.016;2022-09-27T06:43:18;98502.41;;;11.58;100.00
64683;BME280;51107;47.652;19.016;2022-09-27T06:45:48;98504.69;;;11.61;100.00
64683;BME280;51107;47.652;19.016;2022-09-27T06:48:19;98508.09;;;11.62;100.00
64683;BME280;51107;47.652;19.016;2022-09-27T06:50:48;98503.44;;;11.57;100.00
64683;BME280;51107;47.652;19.016;2022-09-27T06:53:16;98501.50;;;11.66;100.00
64683;BME280;51107;47.652;19.016;2022-09-27T06:55:45;98500.06;;;11.63;100.00
64683;BME280;51107;47.652;19.016;2022-09-27T06:58:13;98493.41;;;11.61;100.00
64683;BME280;51107;47.652;19.016;2022-09-27T07:01:02;98499.13;;;11.71;100.00
64683;BME280;51107;47.652;19.016;2022-09-27T07:03:32;98502.66;;;11.63;100.00
64683;BME280;51107;47.652;19.016;2022-09-27T07:06:17;98497.50;;;11.70;100.00
64683;BME280;51107;47.652;19.016;2022-09-27T07:08:50;98493.91;;;11.71;100.00
64683;BME280;51107;47.652;19.016;2022-09-27T07:11:20;98496.53;;;11.71;100.00
64683;BME280;51107;47.652;19.016;2022-09-27T07:13:51;98495.56;;;11.79;100.00
64683;BME280;51107;47.652;19.016;2022-09-27T07:16:20;98488.38;;;11.81;100.00
64683;BME280;51107;47.652;19.016;2022-09-27T07:18:48;98497.00;;;11.81;100.00
64683;BME280;51107;47.652;19.016;2022-09-27T07:21:17;98504.56;;;11.76;100.00
64683;BME280;51107;47.652;19.016;2022-09-27T07:23:46;98510.81;;;11.75;100.00
64683;BME280;51107;47.652;19.016;2022-09-27T07:26:15;98511.41;;;11.77;100.00
64683;BME280;51107;47.652;19.016;2022-09-27T07:28:44;98520.22;;;11.76;100.00
64683;BME280;51107;47.652;19.016;2022-09-27T07:31:13;98509.78;;;11.76;100.00
64683;BME280;51107;47.652;19.016;2022-09-27T07:33:42;98515.09;;;11.89;100.00
64683;BME280;51107;47.652;19.016;2022-09-27T07:36:12;98518.34;;;11.92;100.00
64683;BME280;51107;47.652;19.016;2022-09-27T07:38:41;98522.34;;;11.87;100.00
64683;BME280;51107;47.652;19.016;2022-09-27T07:41:11;98509.19;;;11.96;100.00
64683;BME280;51107;47.652;19.016;2022-09-27T07:43:41;98509.69;;;12.13;100.00
64683;BME280;51107;47.652;19.016;2022-09-27T07:46:13;98500.47;;;12.17;100.00
64683;BME280;51107;47.652;19.016;2022-09-27T07:48:42;98514.78;;;12.28;100.00
64683;BME280;51107;47.652;19.016;2022-09-27T07:51:10;98506.59;;;12.37;100.00
64683;BME280;51107;47.652;19.016;2022-09-27T07:53:39;98519.62;;;12.31;100.00
64683;BME280;51107;47.652;19.016;2022-09-27T07:56:08;98516.56;;;12.27;100.00
64683;BME280;51107;47.652;19.016;2022-09-27T07:58:37;98517.59;;;12.26;100.00
64683;BME280;51107;47.652;19.016;2022-09-27T08:01:06;98507.34;;;12.25;100.00
64683;BME280;51107;47.652;19.016;2022-09-27T08:03:35;98504.94;;;12.30;100.00
64683;BME280;51107;47.652;19.016;2022-09-27T08:06:03;98510.16;;;12.30;100.00
64683;BME280;51107;47.652;19.016;2022-09-27T08:08:31;98499.56;;;12.38;100.00
64683;BME280;51107;47.652;19.016;2022-09-27T08:11:12;98500.22;;;12.53;100.00
64683;BME280;51107;47.652;19.016;2022-09-27T08:13:43;98496.22;;;12.57;100.00
64683;BME280;51107;47.652;19.016;2022-09-27T08:16:13;98494.88;;;12.68;100.00
64683;BME280;51107;47.652;19.016;2022-09-27T08:18:42;98492.66;;;12.65;100.00
64683;BME280;51107;47.652;19.016;2022-09-27T08:21:11;98479.22;;;12.75;100.00
64683;BME280;51107;47.652;19.016;2022-09-27T08:23:40;98490.13;;;12.85;100.00
64683;BME280;51107;47.652;19.016;2022-09-27T08:26:10;98492.34;;;12.88;100.00
64683;BME280;51107;47.652;19.016;2022-09-27T08:28:38;98495.34;;;12.85;100.00
64683;BME280;51107;47.652;19.016;2022-09-27T08:31:11;98491.34;;;12.89;100.00
64683;BME280;51107;47.652;19.016;2022-09-27T08:33:39;98491.94;;;12.98;100.00
64683;BME280;51107;47.652;19.016;2022-09-27T08:36:12;98492.56;;;12.94;100.00
64683;BME280;51107;47.652;19.016;2022-09-27T08:38:41;98498.56;;;12.94;100.00
64683;BME280;51107;47.652;19.016;2022-09-27T08:47:04;98495.75;;;12.96;100.00
64683;BME280;51107;47.652;19.016;2022-09-27T08:49:44;98495.56;;;12.97;100.00
64683;BME280;51107;47.652;19.016;2022-09-27T08:52:24;98475.88;;;13.08;100.00
64683;BME280;51107;47.652;19.016;2022-09-27T08:54:57;98477.53;;;13.36;100.00
64683;BME280;51107;47.652;19.016;2022-09-27T08:57:28;98472.53;;;13.48;100.00
64683;BME280;51107;47.652;19.016;2022-09-27T09:00:05;98476.37;;;13.65;100.00
64683;BME280;51107;47.652;19.016;2022-09-27T09:02:35;98468.50;;;13.72;100.00
64683;BME280;51107;47.652;19.016;2022-09-27T09:05:15;98470.09;;;13.73;100.00
64683;BME280;51107;47.652;19.016;2022-09-27T09:10:54;98476.94;;;13.74;100.00
64683;BME280;51107;47.652;19.016;2022-09-27T09:14:09;98480.56;;;13.73;100.00
64683;BME280;51107;47.652;19.016;2022-09-27T09:19:32;98469.47;;;13.91;100.00
64683;BME280;51107;47.652;19.016;2022-09-27T09:22:22;98451.34;;;13.89;100.00
64683;BME280;51107;47.652;19.016;2022-09-27T09:30:22;98440.88;;;13.89;100.00
64683;BME280;51107;47.652;19.016;2022-09-27T09:36:09;98441.88;;;13.95;100.00
64683;BME280;51107;47.652;19.016;2022-09-27T09:41:47;98439.88;;;13.90;100.00
64683;BME280;51107;47.652;19.016;2022-09-27T09:46:54;98421.34;;;13.99;100.00
64683;BME280;51107;47.652;19.016;2022-09-27T09:49:40;98422.53;;;13.96;100.00
64683;BME280;51107;47.652;19.016;2022-09-27T09:52:14;98417.88;;;14.05;100.00
64683;BME280;51107;47.652;19.016;2022-09-27T09:54:55;98414.28;;;13.99;100.00
64683;BME280;51107;47.652;19.016;2022-09-27T09:57:32;98419.91;;;14.03;100.00
64683;BME280;51107;47.652;19.016;2022-09-27T10:00:12;98424.34;;;14.02;100.00
64683;BME280;51107;47.652;19.016;2022-09-27T10:02:44;98419.28;;;14.07;100.00
64683;BME280;51107;47.652;19.016;2022-09-27T10:05:22;98414.25;;;14.06;100.00
64683;BME280;51107;47.652;19.016;2022-09-27T10:07:53;98417.50;;;14.08;100.00
64683;BME280;51107;47.652;19.016;2022-09-27T10:10:23;98411.88;;;13.98;100.00
64683;BME280;51107;47.652;19.016;2022-09-27T10:12:55;98408.25;;;13.99;100.00
64683;BME280;51107;47.652;19.016;2022-09-27T10:15:27;98415.25;;;14.05;100.00
64683;BME280;51107;47.652;19.016;2022-09-27T10:17:58;98403.59;;;14.01;100.00
64683;BME280;51107;47.652;19.016;2022-09-27T10:20:44;98408.25;;;13.92;100.00
64683;BME280;51107;47.652;19.016;2022-09-27T10:23:19;98396.16;;;13.98;100.00
64683;BME280;51107;47.652;19.016;2022-09-27T10:25:57;98397.00;;;13.91;100.00
64683;BME280;51107;47.652;19.016;2022-09-27T10:28:32;98405.44;;;13.87;100.00
64683;BME280;51107;47.652;19.016;2022-09-27T10:31:14;98400.63;;;13.77;100.00
64683;BME280;51107;47.652;19.016;2022-09-27T10:33:53;98397.03;;;13.71;100.00
64683;BME280;51107;47.652;19.016;2022-09-27T10:36:34;98395.81;;;13.74;100.00
64683;BME280;51107;47.652;19.016;2022-09-27T10:39:05;98394.41;;;13.71;100.00
64683;BME280;51107;47.652;19.016;2022-09-27T10:41:40;98397.03;;;13.71;100.00
64683;BME280;51107;47.652;19.016;2022-09-27T10:46:50;98380.72;;;13.76;100.00
64683;BME280;51107;47.652;19.016;2022-09-27T10:52:25;98388.75;;;13.81;100.00
64683;BME280;51107;47.652;19.016;2022-09-27T10:54:59;98389.78;;;13.80;100.00
64683;BME280;51107;47.652;19.016;2022-09-27T10:57:29;98384.94;;;13.77;100.00
64683;BME280;51107;47.652;19.016;2022-09-27T11:00:03;98374.88;;;13.74;100.00
64683;BME280;51107;47.652;19.016;2022-09-27T11:02:36;98380.31;;;13.79;100.00
64683;BME280;51107;47.652;19.016;2022-09-27T11:05:07;98373.28;;;13.73;100.00
64683;BME280;51107;47.652;19.016;2022-09-27T11:07:51;98371.25;;;13.75;100.00
64683;BME280;51107;47.652;19.016;2022-09-27T11:10:21;98376.91;;;13.72;100.00
64683;BME280;51107;47.652;19.016;2022-09-27T11:13:14;98366.62;;;13.70;100.00
64683;BME280;51107;47.652;19.016;2022-09-27T11:27:52;98349.72;;;13.73;100.00
64683;BME280;51107;47.652;19.016;2022-09-27T11:30:43;98349.13;;;13.78;100.00
64683;BME280;51107;47.652;19.016;2022-09-27T11:36:25;98337.38;;;13.93;100.00
64683;BME280;51107;47.652;19.016;2022-09-27T11:45:01;98338.09;;;14.14;100.00
64683;BME280;51107;47.652;19.016;2022-09-27T11:51:02;98314.06;;;14.24;100.00
64683;BME280;51107;47.652;19.016;2022-09-27T11:53:42;98315.84;;;14.30;100.00
64683;BME280;51107;47.652;19.016;2022-09-27T11:56:37;98313.19;;;14.37;100.00
64683;BME280;51107;47.652;19.016;2022-09-27T11:59:28;98312.22;;;14.31;100.00
64683;BME280;51107;47.652;19.016;2022-09-27T12:04:50;98300.72;;;14.32;100.00
64683;BME280;51107;47.652;19.016;2022-09-27T12:10:18;98297.72;;;14.29;100.00
64683;BME280;51107;47.652;19.016;2022-09-27T12:12:55;98298.56;;;14.22;100.00
64683;BME280;51107;47.652;19.016;2022-09-27T12:15:28;98291.09;;;14.26;100.00
64683;BME280;51107;47.652;19.016;2022-09-27T12:18:24;98283.41;;;14.31;100.00
64683;BME280;51107;47.652;19.016;2022-09-27T12:20:54;98284.75;;;14.40;100.00
64683;BME280;51107;47.652;19.016;2022-09-27T12:26:22;98273.75;;;14.57;100.00
64683;BME280;51107;47.652;19.016;2022-09-27T12:31:56;98274.69;;;14.69;100.00
64683;BME280;51107;47.652;19.016;2022-09-27T12:34:32;98274.19;;;14.79;100.00
64683;BME280;51107;47.652;19.016;2022-09-27T12:45:46;98258.75;;;14.71;100.00
64683;BME280;51107;47.652;19.016;2022-09-27T12:51:14;98256.22;;;14.57;100.00
64683;BME280;51107;47.652;19.016;2022-09-27T13:14:32;98224.53;;;14.34;100.00
64683;BME280;51107;47.652;19.016;2022-09-27T13:17:02;98221.72;;;14.35;100.00
64683;BME280;51107;47.652;19.016;2022-09-27T13:22:08;98222.00;;;14.52;100.00
64683;BME280;51107;47.652;19.016;2022-09-27T13:32:39;98232.97;;;14.68;100.00
64683;BME280;51107;47.652;19.016;2022-09-27T13:37:47;98216.47;;;14.60;100.00
64683;BME280;51107;47.652;19.016;2022-09-27T13:40:21;98222.16;;;14.57;100.00
64683;BME280;51107;47.652;19.016;2022-09-27T13:51:15;98208.50;;;14.49;100.00
64683;BME280;51107;47.652;19.016;2022-09-27T13:53:58;98199.91;;;14.41;100.00
64683;BME280;51107;47.652;19.016;2022-09-27T13:59:16;98191.25;;;14.41;100.00
64683;BME280;51107;47.652;19.016;2022-09-27T14:01:55;98192.84;;;14.42;100.00
64683;BME280;51107;47.652;19.016;2022-09-27T14:04:30;98228.72;;;14.41;100.00
64683;BME280;51107;47.652;19.016;2022-09-27T14:07:03;98247.09;;;14.35;100.00
64683;BME280;51107;47.652;19.016;2022-09-27T14:09:36;98238.50;;;13.96;100.00
64683;BME280;51107;47.652;19.016;2022-09-27T14:12:11;98251.69;;;13.69;100.00
64683;BME280;51107;47.652;19.016;2022-09-27T14:14:45;98248.34;;;13.48;100.00
64683;BME280;51107;47.652;19.016;2022-09-27T14:17:14;98257.69;;;13.17;100.00
64683;BME280;51107;47.652;19.016;2022-09-27T14:19:44;98248.28;;;12.89;100.00
64683;BME280;51107;47.652;19.016;2022-09-27T14:22:15;98239.03;;;12.80;100.00
64683;BME280;51107;47.652;19.016;2022-09-27T14:24:51;98246.28;;;12.65;100.00
64683;BME280;51107;47.652;19.016;2022-09-27T14:27:25;98249.47;;;12.53;100.00
64683;BME280;51107;47.652;19.016;2022-09-27T14:29:55;98246.28;;;12.58;100.00
64683;BME280;51107;47.652;19.016;2022-09-27T14:32:30;98247.09;;;12.45;100.00
64683;BME280;51107;47.652;19.016;2022-09-27T14:35:12;98245.66;;;12.56;100.00
64683;BME280;51107;47.652;19.016;2022-09-27T14:38:07;98247.28;;;12.57;100.00
64683;BME280;51107;47.652;19.016;2022-09-27T14:40:59;98243.88;;;12.56;100.00
64683;BME280;51107;47.652;19.016;2022-09-27T14:43:29;98249.28;;;12.48;100.00
64683;BME280;51107;47.652;19.016;2022-09-27T14:46:05;98249.69;;;12.58;100.00
64683;BME280;51107;47.652;19.016;2022-09-27T14:48:38;98255.91;;;12.57;100.00
64683;BME280;51107;47.652;19.016;2022-09-27T14:53:45;98262.16;;;12.56;100.00
64683;BME280;51107;47.652;19.016;2022-09-27T14:56:22;98257.94;;;12.55;100.00
64683;BME280;51107;47.652;19.016;2022-09-27T14:58:57;98261.75;;;12.60;100.00
64683;BME280;51107;47.652;19.016;2022-09-27T15:01:30;98266.97;;;12.73;100.00
64683;BME280;51107;47.652;19.016;2022-09-27T15:04:06;98262.13;;;12.70;100.00
64683;BME280;51107;47.652;19.016;2022-09-27T15:06:36;98280.25;;;12.65;100.00
64683;BME280;51107;47.652;19.016;2022-09-27T15:09:05;98279.63;;;12.69;100.00
64683;BME280;51107;47.652;19.016;2022-09-27T15:11:39;98268.75;;;12.66;100.00
64683;BME280;51107;47.652;19.016;2022-09-27T15:14:14;98280.41;;;12.70;100.00
64683;BME280;51107;47.652;19.016;2022-09-27T15:16:45;98282.44;;;12.61;100.00
64683;BME280;51107;47.652;19.016;2022-09-27T15:19:25;98287.88;;;12.60;100.00
64683;BME280;51107;47.652;19.016;2022-09-27T15:21:54;98291.25;;;12.53;100.00
64683;BME280;51107;47.652;19.016;2022-09-27T15:24:43;98292.28;;;12.52;100.00
64683;BME280;51107;47.652;19.016;2022-09-27T15:27:15;98289.03;;;12.44;100.00
64683;BME280;51107;47.652;19.016;2022-09-27T15:29:53;98291.84;;;12.35;100.00
64683;BME280;51107;47.652;19.016;2022-09-27T15:32:26;98289.81;;;12.24;100.00
64683;BME280;51107;47.652;19.016;2022-09-27T15:34:56;98301.25;;;12.16;100.00
64683;BME280;51107;47.652;19.016;2022-09-27T15:37:35;98305.28;;;12.12;100.00
64683;BME280;51107;47.652;19.016;2022-09-27T15:41:11;98300.41;;;12.09;100.00
64683;BME280;51107;47.652;19.016;2022-09-27T15:43:34;98304.97;;;11.94;100.00
64683;BME280;51107;47.652;19.016;2022-09-27T15:46:36;98299.53;;;11.88;100.00
64683;BME280;51107;47.652;19.016;2022-09-27T15:49:28;98311.09;;;11.72;100.00
64683;BME280;51107;47.652;19.016;2022-09-27T15:52:04;98310.63;;;11.62;100.00
64683;BME280;51107;47.652;19.016;2022-09-27T15:54:32;98305.00;;;11.52;100.00